createdAt,value
2023-03-04T00:01:54.259Z,94.36
2023-03-04T00:04:20.797Z,93.68
2023-03-04T00:06:48.375Z,93.92
2023-03-04T00:09:14.852Z,94.11
2023-03-04T00:11:41.355Z,94.07
2023-03-04T00:14:07.789Z,93.89
2023-03-04T00:16:34.439Z,93.49
2023-03-04T00:19:00.920Z,94.21
2023-03-04T00:21:27.420Z,96.10
2023-03-04T00:23:53.958Z,96.22
2023-03-04T00:26:20.369Z,94.94
2023-03-04T00:28:47.444Z,95.33
2023-03-04T00:31:14.165Z,95.35
2023-03-04T00:33:40.811Z,94.86
2023-03-04T00:36:07.572Z,94.60
2023-03-04T00:38:34.008Z,94.03
2023-03-04T00:41:02.064Z,94.21
2023-03-04T00:43:29.761Z,94.64
2023-03-04T00:45:56.524Z,95.04
2023-03-04T00:48:23.278Z,94.32
2023-03-04T00:50:51.790Z,95.37
2023-03-04T00:53:18.365Z,94.77
2023-03-04T00:55:44.823Z,94.72
2023-03-04T00:58:11.344Z,95.01
2023-03-04T01:00:37.834Z,94.40
2023-03-04T01:03:04.355Z,94.70
2023-03-04T01:05:32.108Z,94.89
2023-03-04T01:07:58.965Z,94.95
2023-03-04T01:10:27.653Z,95.43
2023-03-04T01:12:54.094Z,95.51
2023-03-04T01:15:20.645Z,95.27
2023-03-04T01:17:47.181Z,95.06
2023-03-04T01:20:15.226Z,95.83
2023-03-04T01:22:41.784Z,96.66
2023-03-04T01:25:09.047Z,96.33
2023-03-04T01:27:35.635Z,96.60
2023-03-04T01:30:02.259Z,96.12
2023-03-04T01:32:29.551Z,95.75
2023-03-04T01:34:56.128Z,95.67
2023-03-04T01:37:23.020Z,95.65
2023-03-04T01:39:49.497Z,95.06
2023-03-04T01:42:20.542Z,95.56
2023-03-04T01:44:47.318Z,95.38
2023-03-04T01:47:14.521Z,94.78
2023-03-04T01:49:41.167Z,94.65
2023-03-04T01:52:12.071Z,94.78
2023-03-04T01:54:38.898Z,94.52
2023-03-04T01:57:16.278Z,94.38
2023-03-04T01:59:43.088Z,94.26
2023-03-04T02:02:09.604Z,93.93
2023-03-04T02:04:36.795Z,94.28
2023-03-04T02:07:03.994Z,94.11
2023-03-04T02:09:31.829Z,94.09
2023-03-04T02:11:58.627Z,94.34
2023-03-04T02:14:25.273Z,93.49
2023-03-04T02:16:52.375Z,93.04
2023-03-04T02:19:24.952Z,92.26
2023-03-04T02:21:51.449Z,92.41
2023-03-04T02:24:23.077Z,93.02
2023-03-04T02:26:49.560Z,93.27
2023-03-04T02:29:17.246Z,93.42
2023-03-04T02:31:45.883Z,93.60
2023-03-04T02:34:14.851Z,93.91
2023-03-04T02:36:42.376Z,93.37
2023-03-04T02:39:12.594Z,92.89
2023-03-04T02:41:39.428Z,93.30
2023-03-04T02:44:16.830Z,92.93
2023-03-04T02:46:43.406Z,92.98
2023-03-04T02:49:09.907Z,93.46
2023-03-04T02:51:36.374Z,93.35
2023-03-04T02:54:02.859Z,93.90
2023-03-04T02:56:29.393Z,93.02
2023-03-04T02:58:55.834Z,93.95
2023-03-04T03:01:22.525Z,93.82
2023-03-04T03:03:49.212Z,94.34
2023-03-04T03:06:15.933Z,94.14
2023-03-04T03:08:42.524Z,94.28
2023-03-04T03:11:09.365Z,93.70
2023-03-04T03:13:36.885Z,93.56
2023-03-04T03:16:04.040Z,93.95
2023-03-04T03:18:30.767Z,94.21
2023-03-04T03:20:57.409Z,94.54
2023-03-04T03:23:24.341Z,94.04
2023-03-04T03:25:51.729Z,94.01
2023-03-04T03:28:18.156Z,94.44
2023-03-04T03:30:44.661Z,90.21
2023-03-04T03:33:11.271Z,90.58
2023-03-04T03:35:38.093Z,92.60
2023-03-04T03:38:04.712Z,93.10
2023-03-04T03:40:31.152Z,93.97
2023-03-04T03:42:57.645Z,94.07
2023-03-04T03:45:24.130Z,94.81
2023-03-04T03:47:50.577Z,95.04
2023-03-04T03:50:17.126Z,94.38
2023-03-04T03:52:43.653Z,93.94
2023-03-04T03:55:10.129Z,94.09
2023-03-04T03:57:36.531Z,93.98
2023-03-04T04:00:03.995Z,94.24
2023-03-04T04:02:40.061Z,94.00
2023-03-04T04:05:07.768Z,93.34
2023-03-04T04:07:34.343Z,93.96
2023-03-04T04:10:00.921Z,94.37
2023-03-04T04:12:27.462Z,95.21
2023-03-04T04:14:54.009Z,95.14
2023-03-04T04:17:20.497Z,94.17
2023-03-04T04:19:46.994Z,94.44
2023-03-04T04:22:15.112Z,93.75
2023-03-04T04:24:41.632Z,94.02
2023-03-04T04:27:08.100Z,93.46
2023-03-04T04:29:34.507Z,93.06
2023-03-04T04:32:00.971Z,93.48
2023-03-04T04:34:27.545Z,93.30
2023-03-04T04:36:54.066Z,93.74
2023-03-04T04:39:20.578Z,93.70
2023-03-04T04:41:47.073Z,93.76
2023-03-04T04:44:13.738Z,93.90
2023-03-04T04:46:40.365Z,94.54
2023-03-04T04:49:07.324Z,93.76
2023-03-04T04:51:34.683Z,94.14
2023-03-04T04:54:01.852Z,93.16
2023-03-04T04:56:28.877Z,94.16
2023-03-04T04:58:57.602Z,93.90
2023-03-04T05:01:24.517Z,93.69
2023-03-04T05:03:53.184Z,94.15
2023-03-04T05:06:20.430Z,94.93
2023-03-04T05:08:47.120Z,94.83
2023-03-04T05:11:13.641Z,94.69
2023-03-04T05:13:40.602Z,95.06
2023-03-04T05:16:07.424Z,95.11
2023-03-04T05:18:34.148Z,94.86
2023-03-04T05:21:01.645Z,93.74
2023-03-04T05:23:29.120Z,94.29
2023-03-04T05:25:55.616Z,93.65
2023-03-04T05:28:22.065Z,94.46
2023-03-04T05:30:48.701Z,94.90
2023-03-04T05:33:16.415Z,94.85
2023-03-04T05:35:43.521Z,93.86
2023-03-04T05:38:11.284Z,93.84
2023-03-04T05:40:38.899Z,94.09
2023-03-04T05:43:05.697Z,92.78
2023-03-04T05:45:32.227Z,93.24
2023-03-04T05:47:58.667Z,93.62
2023-03-04T05:50:25.322Z,94.30
2023-03-04T05:52:52.543Z,94.35
2023-03-04T05:55:19.548Z,94.50
2023-03-04T05:57:46.412Z,94.36
2023-03-04T06:00:13.896Z,93.19
2023-03-04T06:02:41.336Z,92.50
2023-03-04T06:05:08.252Z,91.90
2023-03-04T06:07:35.055Z,89.98
2023-03-04T06:10:03.704Z,89.93
2023-03-04T06:12:30.183Z,91.66
2023-03-04T06:14:56.693Z,91.14
2023-03-04T06:17:23.318Z,91.98
2023-03-04T06:19:49.756Z,91.43
2023-03-04T06:22:16.279Z,91.81
2023-03-04T06:24:42.759Z,91.85
2023-03-04T06:27:09.274Z,93.19
2023-03-04T06:29:35.699Z,91.55
2023-03-04T06:32:02.310Z,93.03
2023-03-04T06:34:29.887Z,91.82
2023-03-04T06:36:56.348Z,92.02
2023-03-04T06:39:22.851Z,91.17
2023-03-04T06:41:49.276Z,90.83
2023-03-04T06:44:15.864Z,90.38
2023-03-04T06:46:42.428Z,90.45
2023-03-04T06:49:09.133Z,90.12
2023-03-04T06:51:35.842Z,88.17
2023-03-04T06:54:02.409Z,86.22
2023-03-04T06:56:28.915Z,84.54
2023-03-04T06:58:55.459Z,86.03
2023-03-04T07:01:23.745Z,86.39
2023-03-04T07:03:50.766Z,86.74
2023-03-04T07:06:18.164Z,84.77
2023-03-04T07:08:44.980Z,81.84
2023-03-04T07:11:11.477Z,78.86
2023-03-04T07:13:40.671Z,80.51
2023-03-04T07:16:08.776Z,78.51
2023-03-04T07:18:35.497Z,76.48
2023-03-04T07:21:02.060Z,73.04
2023-03-04T07:23:28.804Z,74.01
2023-03-04T07:25:55.389Z,72.46
2023-03-04T07:28:22.079Z,70.03
2023-03-04T07:30:48.521Z,68.92
2023-03-04T07:33:15.117Z,70.79
2023-03-04T07:35:41.764Z,67.89
2023-03-04T07:38:08.283Z,64.98
2023-03-04T07:40:34.925Z,63.28
2023-03-04T07:43:01.495Z,62.45
2023-03-04T07:45:28.205Z,61.70
2023-03-04T07:47:54.915Z,62.46
2023-03-04T07:50:22.436Z,65.20
2023-03-04T07:52:50.882Z,64.92
2023-03-04T07:55:18.194Z,65.03
2023-03-04T07:57:46.261Z,64.21
2023-03-04T08:00:14.355Z,64.10
2023-03-04T08:02:40.975Z,62.69
2023-03-04T08:05:07.628Z,66.26
2023-03-04T08:07:34.120Z,64.26
2023-03-04T08:10:00.788Z,66.65
2023-03-04T08:12:28.040Z,63.05
2023-03-04T08:14:54.472Z,62.01
2023-03-04T08:17:20.987Z,59.52
2023-03-04T08:19:47.436Z,61.15
2023-03-04T08:22:13.867Z,59.73
2023-03-04T08:24:40.322Z,59.37
2023-03-04T08:27:06.783Z,61.75
2023-03-04T08:29:33.300Z,57.72
2023-03-04T08:31:59.863Z,56.57
2023-03-04T08:34:27.560Z,60.02
2023-03-04T08:36:54.157Z,61.21
2023-03-04T08:39:20.778Z,57.52
2023-03-04T08:41:47.750Z,59.53
2023-03-04T08:44:14.587Z,58.05
2023-03-04T08:46:41.922Z,56.08
2023-03-04T08:49:08.917Z,58.37
2023-03-04T08:51:35.851Z,56.80
2023-03-04T08:54:03.451Z,54.96
2023-03-04T08:56:30.404Z,59.69
2023-03-04T08:58:56.918Z,56.70
2023-03-04T09:01:23.524Z,54.36
2023-03-04T09:03:50.133Z,52.90
2023-03-04T09:06:17.782Z,54.94
2023-03-04T09:08:45.021Z,53.23
2023-03-04T09:11:11.925Z,53.08
2023-03-04T09:13:38.629Z,54.35
2023-03-04T09:16:09.917Z,50.58
2023-03-04T09:18:36.709Z,49.97
2023-03-04T09:21:03.348Z,51.11
2023-03-04T09:23:29.862Z,48.99
2023-03-04T09:25:56.355Z,51.96
2023-03-04T09:28:22.797Z,48.88
2023-03-04T09:30:49.264Z,49.86
2023-03-04T09:33:16.200Z,48.29
2023-03-04T09:35:43.183Z,47.24
2023-03-04T09:38:09.850Z,43.42
2023-03-04T09:40:41.696Z,41.80
2023-03-04T09:43:12.850Z,41.55
2023-03-04T09:45:45.746Z,41.80
2023-03-04T09:48:17.447Z,40.66
2023-03-04T09:50:49.958Z,41.05
2023-03-04T09:53:16.517Z,39.68
2023-03-04T09:55:47.078Z,39.04
2023-03-04T09:58:32.400Z,39.84
2023-03-04T10:01:05.112Z,40.71
2023-03-04T10:03:52.134Z,39.51
2023-03-04T10:06:20.529Z,38.64
2023-03-04T10:08:52.652Z,36.27
2023-03-04T10:11:28.572Z,34.60
2023-03-04T10:14:13.254Z,35.50
2023-03-04T10:16:42.732Z,33.86
2023-03-04T10:19:15.454Z,34.89
2023-03-04T10:21:43.440Z,35.52
2023-03-04T10:24:14.650Z,34.66
2023-03-04T10:26:44.420Z,33.81
2023-03-04T10:29:18.325Z,33.14
2023-03-04T10:31:45.712Z,32.80
2023-03-04T10:34:13.536Z,33.08
2023-03-04T10:36:46.189Z,32.72
2023-03-04T10:39:17.689Z,32.56
2023-03-04T10:41:46.183Z,32.31
2023-03-04T10:44:16.435Z,32.84
2023-03-04T10:46:46.206Z,33.68
2023-03-04T10:49:15.071Z,31.55
2023-03-04T10:51:45.036Z,30.99
2023-03-04T10:54:25.890Z,31.79
2023-03-04T10:57:00.292Z,30.70
2023-03-04T10:59:40.865Z,30.98
2023-03-04T11:02:27.605Z,32.47
2023-03-04T11:05:19.799Z,32.48
2023-03-04T11:07:57.118Z,30.00
2023-03-04T11:10:31.824Z,32.17
2023-03-04T11:12:58.283Z,32.07
2023-03-04T11:15:27.447Z,29.49
2023-03-04T11:17:59.157Z,29.14
2023-03-04T11:20:33.953Z,32.30
2023-03-04T11:23:04.574Z,32.45
2023-03-04T11:25:33.653Z,31.97
2023-03-04T11:28:12.756Z,31.44
2023-03-04T11:30:51.883Z,32.74
2023-03-04T11:33:27.584Z,30.80
2023-03-04T11:35:59.837Z,31.79
2023-03-04T11:38:46.556Z,32.08
2023-03-04T11:41:39.408Z,32.61
2023-03-04T11:44:06.660Z,32.62
2023-03-04T11:46:52.812Z,31.85
2023-03-04T11:49:49.958Z,32.77
2023-03-04T11:52:21.059Z,31.95
2023-03-04T11:55:07.940Z,31.12
2023-03-04T11:57:44.775Z,31.14
2023-03-04T12:00:11.250Z,29.98
2023-03-04T12:02:40.355Z,30.72
2023-03-04T12:05:27.951Z,30.21
2023-03-04T12:07:54.359Z,29.67
2023-03-04T12:10:33.941Z,29.79
2023-03-04T12:13:35.425Z,29.71
2023-03-04T12:16:11.915Z,29.31
2023-03-04T12:18:57.291Z,30.17
2023-03-04T12:21:37.229Z,31.45
2023-03-04T12:24:04.360Z,28.65
2023-03-04T12:26:36.721Z,29.08
2023-03-04T12:29:03.160Z,28.22
2023-03-04T12:31:35.415Z,28.48
2023-03-04T12:34:17.327Z,29.09
2023-03-04T12:36:50.398Z,28.52
2023-03-04T12:39:26.055Z,28.13
2023-03-04T12:41:52.514Z,27.38
2023-03-04T12:44:20.299Z,29.62
2023-03-04T12:46:56.185Z,29.12
2023-03-04T12:49:28.593Z,28.83
2023-03-04T12:52:03.117Z,28.53
2023-03-04T12:54:45.242Z,28.57
2023-03-04T12:57:23.543Z,28.40
2023-03-04T13:00:09.089Z,27.40
2023-03-04T13:02:54.305Z,29.24
2023-03-04T13:05:32.401Z,29.03
2023-03-04T13:08:02.240Z,29.91
2023-03-04T13:10:28.826Z,29.03
2023-03-04T13:12:56.908Z,29.94
2023-03-04T13:15:28.359Z,28.59
2023-03-04T13:17:58.902Z,28.29
2023-03-04T13:20:31.326Z,28.08
2023-03-04T13:23:01.087Z,28.15
2023-03-04T13:25:31.228Z,28.33
2023-03-04T13:28:02.715Z,28.31
2023-03-04T13:30:32.420Z,30.07
2023-03-04T13:33:18.823Z,28.82
2023-03-04T13:35:50.638Z,27.57
2023-03-04T13:38:22.265Z,30.24
2023-03-04T13:41:07.504Z,28.82
2023-03-04T13:43:53.139Z,30.45
2023-03-04T13:46:19.660Z,28.56
2023-03-04T13:48:49.299Z,28.07
2023-03-04T13:51:29.341Z,27.47
2023-03-04T13:53:56.677Z,29.16
2023-03-04T13:56:39.296Z,29.79
2023-03-04T13:59:13.234Z,28.79
2023-03-04T14:01:42.699Z,28.58
2023-03-04T14:04:15.491Z,28.47
2023-03-04T14:06:43.481Z,28.27
2023-03-04T14:09:14.951Z,29.51
2023-03-04T14:11:42.818Z,28.45
2023-03-04T14:14:16.758Z,28.44
2023-03-04T14:16:50.205Z,29.25
2023-03-04T14:19:38.333Z,29.35
2023-03-04T14:22:23.719Z,29.14
2023-03-04T14:24:57.355Z,29.41
2023-03-04T14:27:23.811Z,28.77
2023-03-04T14:29:57.693Z,29.77
2023-03-04T14:32:25.298Z,29.52
2023-03-04T14:34:57.624Z,30.66
2023-03-04T14:37:32.263Z,29.17
2023-03-04T14:39:59.779Z,30.00
2023-03-04T14:42:31.632Z,30.27
2023-03-04T14:44:59.090Z,29.90
2023-03-04T14:47:33.716Z,29.99
2023-03-04T14:50:00.316Z,29.63
2023-03-04T14:52:32.762Z,29.92
2023-03-04T14:55:00.047Z,30.24
2023-03-04T14:57:29.787Z,30.41
2023-03-04T14:59:56.339Z,30.17
2023-03-04T15:02:33.601Z,31.16
2023-03-04T15:05:01.627Z,30.24
2023-03-04T15:07:33.537Z,31.19
2023-03-04T15:10:02.088Z,31.59
2023-03-04T15:12:30.423Z,31.72
2023-03-04T15:15:20.252Z,31.04
2023-03-04T15:17:57.156Z,31.05
2023-03-04T15:20:28.017Z,30.76
2023-03-04T15:22:54.535Z,31.34
2023-03-04T15:25:21.560Z,30.94
2023-03-04T15:27:48.835Z,30.42
2023-03-04T15:30:20.128Z,30.74
2023-03-04T15:32:46.965Z,32.00
2023-03-04T15:35:14.239Z,31.14
2023-03-04T15:37:41.255Z,31.49
2023-03-04T15:40:22.482Z,31.73
2023-03-04T15:42:49.199Z,32.03
2023-03-04T15:45:29.588Z,32.66
2023-03-04T15:47:56.099Z,32.51
2023-03-04T15:50:26.653Z,31.92
2023-03-04T15:52:56.109Z,32.81
2023-03-04T15:55:22.556Z,35.94
2023-03-04T15:57:52.493Z,37.69
2023-03-04T16:00:19.143Z,40.12
2023-03-04T16:02:46.363Z,41.22
2023-03-04T16:05:12.983Z,42.62
2023-03-04T16:07:42.911Z,41.71
2023-03-04T16:10:30.741Z,41.57
2023-03-04T16:12:57.305Z,42.31
2023-03-04T16:15:28.231Z,40.09
2023-03-04T16:17:55.273Z,41.24
2023-03-04T16:20:24.703Z,39.56
2023-03-04T16:22:54.156Z,43.43
2023-03-04T16:25:21.039Z,43.41
2023-03-04T16:27:47.523Z,43.05
2023-03-04T16:30:15.748Z,42.31
2023-03-04T16:32:42.385Z,42.96
2023-03-04T16:35:09.451Z,41.25
2023-03-04T16:37:36.220Z,40.02
2023-03-04T16:40:04.569Z,38.90
2023-03-04T16:42:31.020Z,37.98
2023-03-04T16:44:57.596Z,38.22
2023-03-04T16:47:24.019Z,39.41
2023-03-04T16:49:50.896Z,40.95
2023-03-04T16:52:25.371Z,40.35
2023-03-04T16:54:52.196Z,40.58
2023-03-04T16:57:19.304Z,43.28
2023-03-04T16:59:46.017Z,43.93
2023-03-04T17:02:17.082Z,43.87
2023-03-04T17:04:44.696Z,44.23
2023-03-04T17:07:11.736Z,45.08
2023-03-04T17:09:38.249Z,45.33
2023-03-04T17:12:08.256Z,45.70
2023-03-04T17:14:34.869Z,46.50
2023-03-04T17:17:02.019Z,46.88
2023-03-04T17:19:28.554Z,46.72
2023-03-04T17:21:58.828Z,47.64
2023-03-04T17:24:25.638Z,48.35
2023-03-04T17:26:52.307Z,49.62
2023-03-04T17:29:18.797Z,49.50
2023-03-04T17:31:45.332Z,50.02
2023-03-04T17:34:11.900Z,50.24
2023-03-04T17:36:38.396Z,50.10
2023-03-04T17:39:06.222Z,48.04
2023-03-04T17:41:34.360Z,48.75
2023-03-04T17:44:02.800Z,49.08
2023-03-04T17:46:29.502Z,49.97
2023-03-04T17:48:57.152Z,49.14
2023-03-04T17:51:49.973Z,49.10
2023-03-04T17:54:16.671Z,50.06
2023-03-04T17:56:46.826Z,50.63
2023-03-04T17:59:14.512Z,48.93
2023-03-04T18:01:41.162Z,48.83
2023-03-04T18:04:08.339Z,49.22
2023-03-04T18:06:34.822Z,49.41
2023-03-04T18:09:01.314Z,48.54
2023-03-04T18:11:27.834Z,49.06
2023-03-04T18:13:56.535Z,48.59
2023-03-04T18:16:24.899Z,49.01
2023-03-04T18:18:51.637Z,48.74
2023-03-04T18:21:18.920Z,48.69
2023-03-04T18:23:45.939Z,49.45
2023-03-04T18:26:12.955Z,49.08
2023-03-04T18:28:39.547Z,49.37
2023-03-04T18:31:06.046Z,48.76
2023-03-04T18:33:32.822Z,49.42
2023-03-04T18:36:00.288Z,48.47
2023-03-04T18:38:26.935Z,46.72
2023-03-04T18:40:57.584Z,46.62
2023-03-04T18:43:24.021Z,49.12
2023-03-04T18:45:59.111Z,51.17
2023-03-04T18:48:25.708Z,50.58
2023-03-04T18:50:53.816Z,50.21
2023-03-04T18:53:20.253Z,49.61
2023-03-04T18:55:46.740Z,48.20
2023-03-04T18:58:13.169Z,47.42
2023-03-04T19:00:39.640Z,46.54
2023-03-04T19:03:11.755Z,45.78
2023-03-04T19:05:38.349Z,45.03
2023-03-04T19:08:06.735Z,43.87
2023-03-04T19:10:33.302Z,44.18
2023-03-04T19:12:59.772Z,44.02
2023-03-04T19:15:26.629Z,45.09
2023-03-04T19:17:53.081Z,45.70
2023-03-04T19:20:19.655Z,45.42
2023-03-04T19:22:46.200Z,47.35
2023-03-04T19:25:12.974Z,47.60
2023-03-04T19:27:39.556Z,48.01
2023-03-04T19:30:06.663Z,46.62
2023-03-04T19:32:33.325Z,46.60
2023-03-04T19:34:59.871Z,47.43
2023-03-04T19:37:26.466Z,47.68
2023-03-04T19:39:55.697Z,48.40
2023-03-04T19:42:23.393Z,47.50
2023-03-04T19:44:49.829Z,47.95
2023-03-04T19:47:16.292Z,48.72
2023-03-04T19:49:42.709Z,49.79
2023-03-04T19:52:09.247Z,50.17
2023-03-04T19:54:35.921Z,49.38
2023-03-04T19:57:02.400Z,49.87
2023-03-04T19:59:28.873Z,48.14
2023-03-04T20:01:55.426Z,47.68
2023-03-04T20:04:22.127Z,47.14
2023-03-04T20:06:50.128Z,46.36
2023-03-04T20:09:17.437Z,45.75
2023-03-04T20:11:57.340Z,45.22
2023-03-04T20:14:25.604Z,45.33
2023-03-04T20:16:52.199Z,45.08
2023-03-04T20:19:18.695Z,44.84
2023-03-04T20:21:45.148Z,44.14
2023-03-04T20:24:11.733Z,43.89
2023-03-04T20:26:39.469Z,44.35
2023-03-04T20:29:05.944Z,44.46
2023-03-04T20:31:36.007Z,43.24
2023-03-04T20:34:02.547Z,43.50
2023-03-04T20:36:30.369Z,43.57
2023-03-04T20:39:02.507Z,44.65
2023-03-04T20:41:31.242Z,45.00
2023-03-04T20:43:58.046Z,45.45
2023-03-04T20:46:27.486Z,45.28
2023-03-04T20:48:54.437Z,44.57
2023-03-04T20:51:20.965Z,45.54
2023-03-04T20:53:47.617Z,45.99
2023-03-04T20:56:14.200Z,46.06
2023-03-04T20:58:40.691Z,46.99
2023-03-04T21:01:07.147Z,46.55
2023-03-04T21:03:33.568Z,47.76
2023-03-04T21:06:04.145Z,49.35
2023-03-04T21:08:30.954Z,49.69
2023-03-04T21:10:57.451Z,49.80
2023-03-04T21:13:26.770Z,50.49
2023-03-04T21:15:53.260Z,50.22
2023-03-04T21:18:19.784Z,50.70
2023-03-04T21:20:48.393Z,51.01
2023-03-04T21:23:14.886Z,51.21
2023-03-04T21:25:41.525Z,51.62
2023-03-04T21:28:08.029Z,52.26
2023-03-04T21:30:34.442Z,53.14
2023-03-04T21:33:01.009Z,53.77
2023-03-04T21:35:27.608Z,54.68
2023-03-04T21:37:54.233Z,54.15
2023-03-04T21:40:20.840Z,53.97
2023-03-04T21:42:47.284Z,53.77
2023-03-04T21:45:13.794Z,55.33
2023-03-04T21:47:40.350Z,56.59
2023-03-04T21:50:07.049Z,57.00
2023-03-04T21:52:33.624Z,57.07
2023-03-04T21:55:00.640Z,57.06
2023-03-04T21:57:27.082Z,54.54
2023-03-04T21:59:53.566Z,56.84
2023-03-04T22:02:21.387Z,57.87
2023-03-04T22:04:48.369Z,56.35
2023-03-04T22:07:15.008Z,58.15
2023-03-04T22:09:41.503Z,58.24
2023-03-04T22:12:08.116Z,59.68
2023-03-04T22:14:34.579Z,60.86
2023-03-04T22:17:01.105Z,61.66
2023-03-04T22:19:31.313Z,62.25
2023-03-04T22:21:59.094Z,61.56
2023-03-04T22:24:26.277Z,63.07
2023-03-04T22:26:52.775Z,62.55
2023-03-04T22:29:19.310Z,62.98
2023-03-04T22:31:45.974Z,63.12
2023-03-04T22:34:13.497Z,62.71
2023-03-04T22:36:41.773Z,62.80
2023-03-04T22:39:09.568Z,62.69
2023-03-04T22:41:36.083Z,63.19
2023-03-04T22:44:02.680Z,63.44
2023-03-04T22:46:30.390Z,62.90
2023-03-04T22:48:58.311Z,63.49
2023-03-04T22:51:25.031Z,63.87
2023-03-04T22:53:51.809Z,64.97
2023-03-04T22:56:19.162Z,64.87
2023-03-04T22:58:46.536Z,66.19
2023-03-04T23:01:14.065Z,66.28
2023-03-04T23:03:41.722Z,66.01
2023-03-04T23:06:08.286Z,66.52
2023-03-04T23:08:35.872Z,66.53
2023-03-04T23:11:02.928Z,67.77
2023-03-04T23:13:29.469Z,69.69
2023-03-04T23:15:55.900Z,70.43
2023-03-04T23:18:22.417Z,70.72
2023-03-04T23:20:48.936Z,71.37
2023-03-04T23:23:15.436Z,71.67
2023-03-04T23:25:41.971Z,71.66
2023-03-04T23:28:08.464Z,71.78
2023-03-04T23:30:35.423Z,71.68
2023-03-04T23:33:01.915Z,72.44
2023-03-04T23:35:28.379Z,71.68
2023-03-04T23:37:54.908Z,71.69
2023-03-04T23:40:21.461Z,71.79
2023-03-04T23:42:47.884Z,70.97
2023-03-04T23:45:14.302Z,71.62
2023-03-04T23:47:40.744Z,71.95
2023-03-04T23:50:08.791Z,72.23
2023-03-04T23:52:35.439Z,72.74
2023-03-04T23:55:01.909Z,73.50
2023-03-04T23:57:28.432Z,73.19
2023-03-04T23:59:54.875Z,73.33
